Cliffland, Iowa
Current Conditions -  °F | °C
As of 2:53 AM on Sunday 23 Nov 2014 (Local Time) from KOTM Reporting Station
Overcast Overcast  
Wind Chill: 53°   Ceiling: 1200
Heat Index: 53°   Visibility: 10mi
Dew Point: 49°   Wind: 12mph
Humidity: 86%   Direction: 190°S
Pressure: 29.65"   Gusts: NA
Location:  41.0803°N, 92.3054°W
Report Text: KOTM 230853Z AUTO 19010KT 10SM OVC012 12/09 A2965 RMK AO2 SLP039 T01170094 56013
Loading
Personal Weather Stations






























Interactive Weather Map New forecast layout! Learn more

10-Day Weather Forecast

Advertisements
Track Severe Weather on mobile